createdAt,value
2022-09-23T00:02:07.560Z,101666.53
2022-09-23T00:04:42.267Z,101673.22
2022-09-23T00:07:14.993Z,101670.84
2022-09-23T00:09:48.123Z,101674.41
2022-09-23T00:12:20.932Z,101670.41
2022-09-23T00:14:54.162Z,101668.81
2022-09-23T00:17:27.268Z,101671.94
2022-09-23T00:20:01.684Z,101660.09
2022-09-23T00:22:34.596Z,101661.22
2022-09-23T00:25:09.877Z,101655.28
2022-09-23T00:27:42.709Z,101656.50
2022-09-23T00:30:15.654Z,101662.38
2022-09-23T00:32:48.452Z,101653.31
2022-09-23T00:35:22.535Z,101652.13
2022-09-23T00:37:56.525Z,101642.66
2022-09-23T00:40:29.296Z,101635.50
2022-09-23T00:43:02.033Z,101636.28
2022-09-23T00:45:35.090Z,101643.78
2022-09-23T00:48:15.689Z,101643.41
2022-09-23T00:50:55.236Z,101650.13
2022-09-23T00:53:29.796Z,101638.63
2022-09-23T00:56:07.280Z,101639.84
2022-09-23T00:58:42.106Z,101646.53
2022-09-23T01:01:15.341Z,101647.66
2022-09-23T01:03:48.398Z,101641.00
2022-09-23T01:06:22.364Z,101633.09
2022-09-23T01:08:55.567Z,101639.41
2022-09-23T01:11:39.830Z,101641.00
2022-09-23T01:14:29.029Z,101633.84
2022-09-23T01:17:09.967Z,101638.53
2022-09-23T01:20:09.442Z,101633.84
2022-09-23T01:22:50.059Z,101627.47
2022-09-23T01:25:44.969Z,101618.00
2022-09-23T01:28:40.241Z,101623.13
2022-09-23T01:31:19.473Z,101611.31
2022-09-23T01:33:58.011Z,101620.38
2022-09-23T01:36:38.487Z,101608.50
2022-09-23T01:39:15.979Z,101604.53
2022-09-23T01:42:02.162Z,101598.25
2022-09-23T01:44:43.025Z,101601.41
2022-09-23T01:47:22.766Z,101602.97
2022-09-23T01:50:00.790Z,101606.91
2022-09-23T01:52:39.855Z,101605.72
2022-09-23T01:55:17.611Z,101608.88
2022-09-23T01:57:57.800Z,101600.56
2022-09-23T02:00:34.929Z,101602.97
2022-09-23T02:03:16.453Z,101598.16
2022-09-23T02:05:53.823Z,101596.63
2022-09-23T02:08:30.879Z,101601.34
2022-09-23T02:11:08.083Z,101598.22
2022-09-23T02:13:46.222Z,101588.69
2022-09-23T02:16:27.611Z,101591.06
2022-09-23T02:19:07.278Z,101589.88
2022-09-23T02:21:44.897Z,101594.19
2022-09-23T02:24:21.092Z,101582.38
2022-09-23T02:26:57.090Z,101583.56
2022-09-23T02:29:36.346Z,101590.28
2022-09-23T02:32:17.994Z,101583.56
2022-09-23T02:35:01.050Z,101580.75
2022-09-23T02:37:43.607Z,101579.22
2022-09-23T02:40:25.290Z,101572.13
2022-09-23T02:43:06.225Z,101570.09
2022-09-23T02:45:39.436Z,101565.78
2022-09-23T02:48:16.964Z,101561.00
2022-09-23T02:50:51.048Z,101557.09
2022-09-23T02:53:24.772Z,101555.56
2022-09-23T02:55:58.565Z,101553.94
2022-09-23T02:58:31.606Z,101557.84
2022-09-23T03:01:26.834Z,101553.13
2022-09-23T03:04:14.009Z,101550.00
2022-09-23T03:07:00.397Z,101551.56
2022-09-23T03:09:35.969Z,101546.03
2022-09-23T03:12:16.800Z,101546.03
2022-09-23T03:14:55.709Z,101540.13
2022-09-23T03:17:34.733Z,101542.16
2022-09-23T03:20:13.668Z,101550.78
2022-09-23T03:22:54.865Z,101546.03
2022-09-23T03:25:31.547Z,101543.66
2022-09-23T03:28:05.747Z,101548.44
2022-09-23T03:30:40.208Z,101540.50
2022-09-23T03:33:16.672Z,101531.44
2022-09-23T03:36:16.281Z,101537.38
2022-09-23T03:38:52.977Z,101530.22
2022-09-23T03:41:33.527Z,101531.44
2022-09-23T03:44:11.549Z,101531.06
2022-09-23T03:46:49.922Z,101533.44
2022-09-23T03:49:28.837Z,101528.72
2022-09-23T03:52:03.754Z,101523.53
2022-09-23T03:54:38.899Z,101509.72
2022-09-23T03:57:28.141Z,101508.56
2022-09-23T04:00:13.346Z,101514.09
2022-09-23T04:02:49.853Z,101500.25
2022-09-23T04:05:25.167Z,101505.78
2022-09-23T04:07:58.617Z,101506.59
2022-09-23T04:11:18.483Z,101514.09
2022-09-23T04:14:23.929Z,101511.31
2022-09-23T04:17:11.400Z,101510.13
2022-09-23T04:19:47.792Z,101510.97
2022-09-23T04:22:26.693Z,101502.66
2022-09-23T04:25:19.987Z,101503.44
2022-09-23T04:27:57.033Z,101500.25
2022-09-23T04:30:53.528Z,101505.78
2022-09-23T04:33:29.464Z,101504.25
2022-09-23T04:36:05.550Z,101504.25
2022-09-23T04:38:38.376Z,101505.06
2022-09-23T04:41:11.786Z,101503.84
2022-09-23T04:43:47.347Z,101497.13
2022-09-23T04:46:22.024Z,101502.25
2022-09-23T04:48:55.262Z,101498.69
2022-09-23T04:51:31.667Z,101499.53
2022-09-23T04:54:06.205Z,101508.97
2022-09-23T04:56:40.015Z,101510.53
2022-09-23T04:59:15.595Z,101507.41
2022-09-23T05:01:51.587Z,101502.25
2022-09-23T05:04:31.043Z,101505.44
2022-09-23T05:07:20.495Z,101505.03
2022-09-23T05:10:28.677Z,101513.75
2022-09-23T05:13:40.201Z,101506.59
2022-09-23T05:16:25.035Z,101505.81
2022-09-23T05:18:58.653Z,101498.31
2022-09-23T05:21:32.305Z,101505.81
2022-09-23T05:24:06.058Z,101512.94
2022-09-23T05:26:39.630Z,101513.75
2022-09-23T05:29:12.552Z,101512.16
2022-09-23T05:31:47.222Z,101504.22
2022-09-23T05:34:20.343Z,101507.41
2022-09-23T05:36:53.317Z,101504.63
2022-09-23T05:39:27.375Z,101511.75
2022-09-23T05:42:25.559Z,101508.59
2022-09-23T05:45:28.199Z,101509.78
2022-09-23T05:48:43.170Z,101507.41
2022-09-23T05:51:22.551Z,101505.06
2022-09-23T05:53:59.658Z,101508.22
2022-09-23T05:56:34.115Z,101508.22
2022-09-23T05:59:07.375Z,101509.78
2022-09-23T06:01:40.809Z,101510.19
2022-09-23T06:04:15.580Z,101513.38
2022-09-23T06:06:48.532Z,101513.38
2022-09-23T06:09:21.216Z,101506.63
2022-09-23T06:11:54.062Z,101508.22
2022-09-23T06:14:27.597Z,101501.09
2022-09-23T06:17:03.099Z,101497.56
2022-09-23T06:19:37.065Z,101495.59
2022-09-23T06:22:10.831Z,101499.53
2022-09-23T06:24:43.908Z,101504.28
2022-09-23T06:27:16.590Z,101494.81
2022-09-23T06:29:51.880Z,101496.41
2022-09-23T06:32:24.529Z,101490.50
2022-09-23T06:34:58.582Z,101496.41
2022-09-23T06:37:33.315Z,101498.00
2022-09-23T06:40:06.951Z,101489.31
2022-09-23T06:42:39.664Z,101492.44
2022-09-23T06:45:15.276Z,101489.34
2022-09-23T06:47:51.248Z,101490.09
2022-09-23T06:50:26.933Z,101501.94
2022-09-23T06:52:59.737Z,101496.06
2022-09-23T06:55:33.287Z,101497.25
2022-09-23T06:58:06.164Z,101495.66
2022-09-23T07:00:39.320Z,101486.19
2022-09-23T07:03:11.915Z,101490.91
2022-09-23T07:05:46.064Z,101494.09
2022-09-23T07:08:19.001Z,101490.13
2022-09-23T07:10:55.273Z,101490.94
2022-09-23T07:13:29.499Z,101496.47
2022-09-23T07:16:03.693Z,101497.25
2022-09-23T07:18:37.730Z,101496.81
2022-09-23T07:21:16.388Z,101497.22
2022-09-23T07:23:51.972Z,101497.22
2022-09-23T07:26:26.335Z,101495.25
2022-09-23T07:29:05.200Z,101494.06
2022-09-23T07:31:40.182Z,101490.88
2022-09-23T07:34:13.038Z,101495.63
2022-09-23T07:36:49.758Z,101484.50
2022-09-23T07:39:22.728Z,101493.25
2022-09-23T07:41:56.824Z,101494.78
2022-09-23T07:44:31.631Z,101496.75
2022-09-23T07:47:05.296Z,101497.97
2022-09-23T07:49:38.604Z,101496.78
2022-09-23T07:52:12.966Z,101499.16
2022-09-23T07:54:48.034Z,101501.84
2022-09-23T07:57:20.982Z,101502.63
2022-09-23T07:59:53.706Z,101504.97
2022-09-23T08:02:26.536Z,101500.16
2022-09-23T08:04:59.246Z,101495.38
2022-09-23T08:07:34.401Z,101500.81
2022-09-23T08:10:08.387Z,101506.75
2022-09-23T08:12:41.450Z,101500.34
2022-09-23T08:15:14.668Z,101507.81
2022-09-23T08:17:48.000Z,101510.13
2022-09-23T08:20:34.636Z,101507.69
2022-09-23T08:23:09.096Z,101508.47
2022-09-23T08:25:44.634Z,101510.03
2022-09-23T08:28:19.180Z,101512.34
2022-09-23T08:30:52.092Z,101515.53
2022-09-23T08:33:25.437Z,101512.75
2022-09-23T08:36:01.331Z,101513.06
2022-09-23T08:38:35.752Z,101511.00
2022-09-23T08:41:17.614Z,101509.34
2022-09-23T08:43:54.326Z,101507.31
2022-09-23T08:46:33.163Z,101514.53
2022-09-23T08:49:07.699Z,101515.25
2022-09-23T08:51:46.235Z,101513.53
2022-09-23T08:54:20.526Z,101517.53
2022-09-23T08:56:55.340Z,101515.47
2022-09-23T08:59:38.992Z,101517.34
2022-09-23T09:02:19.019Z,101518.91
2022-09-23T09:04:55.756Z,101515.34
2022-09-23T09:07:37.069Z,101520.03
2022-09-23T09:10:18.537Z,101522.69
2022-09-23T09:12:55.428Z,101518.25
2022-09-23T09:15:29.593Z,101518.25
2022-09-23T09:18:07.649Z,101520.94
2022-09-23T09:20:42.889Z,101514.53
2022-09-23T09:23:22.782Z,101511.31
2022-09-23T09:26:00.019Z,101520.00
2022-09-23T09:28:40.125Z,101519.19
2022-09-23T09:31:24.166Z,101511.56
2022-09-23T09:34:03.862Z,101508.78
2022-09-23T09:36:43.610Z,101506.28
2022-09-23T09:39:17.264Z,101511.75
2022-09-23T09:41:52.851Z,101518.00
2022-09-23T09:44:31.633Z,101502.94
2022-09-23T09:47:17.814Z,101500.09
2022-09-23T09:50:00.679Z,101497.19
2022-09-23T09:52:33.400Z,101495.53
2022-09-23T09:55:25.416Z,101494.72
2022-09-23T09:58:04.143Z,101500.91
2022-09-23T10:00:42.733Z,101493.00
2022-09-23T10:03:26.736Z,101501.56
2022-09-23T10:06:00.100Z,101499.19
2022-09-23T10:08:35.210Z,101504.25
2022-09-23T10:11:16.149Z,101501.91
2022-09-23T10:14:06.681Z,101481.50
2022-09-23T10:16:40.138Z,101485.94
2022-09-23T10:19:18.086Z,101488.22
2022-09-23T10:21:59.859Z,101487.19
2022-09-23T10:24:37.597Z,101486.88
2022-09-23T10:27:12.282Z,101480.38
2022-09-23T10:29:52.318Z,101485.06
2022-09-23T10:32:28.976Z,101484.28
2022-09-23T10:35:14.536Z,101479.41
2022-09-23T10:37:50.541Z,101479.59
2022-09-23T10:40:48.309Z,101476.00
2022-09-23T10:43:45.760Z,101473.53
2022-09-23T10:46:41.498Z,101479.81
2022-09-23T10:49:34.756Z,101480.84
2022-09-23T10:52:20.516Z,101479.63
2022-09-23T10:55:05.140Z,101478.56
2022-09-23T10:57:53.061Z,101477.06
2022-09-23T11:00:37.823Z,101483.13
2022-09-23T11:03:34.803Z,101478.75
2022-09-23T11:06:19.989Z,101483.69
2022-09-23T11:09:10.822Z,101474.97
2022-09-23T11:11:54.977Z,101480.03
2022-09-23T11:14:46.342Z,101473.31
2022-09-23T11:17:33.418Z,101475.47
2022-09-23T11:20:40.982Z,101475.38
2022-09-23T11:23:38.765Z,101475.72
2022-09-23T11:26:29.115Z,101479.19
2022-09-23T11:29:33.805Z,101468.88
2022-09-23T11:32:27.756Z,101462.38
2022-09-23T11:35:12.786Z,101464.69
2022-09-23T11:37:49.999Z,101456.13
2022-09-23T11:40:30.246Z,101454.72
2022-09-23T11:43:08.189Z,101456.53
2022-09-23T11:45:46.362Z,101456.31
2022-09-23T11:48:25.957Z,101452.59
2022-09-23T11:51:02.665Z,101445.28
2022-09-23T11:53:46.791Z,101445.75
2022-09-23T11:56:34.523Z,101443.47
2022-09-23T11:59:16.439Z,101441.50
2022-09-23T12:02:20.654Z,101437.53
2022-09-23T12:05:06.761Z,101438.06
2022-09-23T12:07:51.513Z,101446.25
2022-09-23T12:10:37.285Z,101440.88
2022-09-23T12:13:19.097Z,101437.34
2022-09-23T12:16:05.376Z,101445.19
2022-09-23T12:18:49.030Z,101439.41
2022-09-23T12:21:51.804Z,101437.59
2022-09-23T12:24:46.565Z,101433.00
2022-09-23T12:27:30.163Z,101428.06
2022-09-23T12:30:12.783Z,101431.75
2022-09-23T12:32:45.771Z,101429.53
2022-09-23T12:35:23.361Z,101416.63
2022-09-23T12:37:56.193Z,101419.88
2022-09-23T12:40:34.098Z,101420.31
2022-09-23T12:43:17.662Z,101421.69
2022-09-23T12:45:50.901Z,101421.44
2022-09-23T12:48:43.622Z,101424.72
2022-09-23T12:51:21.778Z,101421.69
2022-09-23T12:54:22.219Z,101411.13
2022-09-23T12:57:06.845Z,101415.06
2022-09-23T13:00:09.650Z,101413.03
2022-09-23T13:02:44.423Z,101409.09
2022-09-23T13:05:39.850Z,101407.09
2022-09-23T13:08:18.852Z,101404.63
2022-09-23T13:10:57.254Z,101394.44
2022-09-23T13:13:34.340Z,101395.47
2022-09-23T13:16:22.847Z,101394.94
2022-09-23T13:18:57.089Z,101394.56
2022-09-23T13:22:08.863Z,101396.63
2022-09-23T13:24:46.801Z,101396.72
2022-09-23T13:27:27.862Z,101396.06
2022-09-23T13:30:03.715Z,101401.78
2022-09-23T13:32:41.735Z,101395.09
2022-09-23T13:35:19.640Z,101399.22
2022-09-23T13:37:52.691Z,101395.34
2022-09-23T13:40:27.833Z,101388.50
2022-09-23T13:43:04.095Z,101389.53
2022-09-23T13:45:41.365Z,101384.94
2022-09-23T13:48:16.898Z,101385.94
2022-09-23T13:50:51.173Z,101382.13
2022-09-23T13:53:28.616Z,101387.03
2022-09-23T13:56:06.425Z,101375.94
2022-09-23T13:58:39.690Z,101376.50
2022-09-23T14:01:24.049Z,101374.63
2022-09-23T14:03:58.233Z,101376.72
2022-09-23T14:06:31.962Z,101369.03
2022-09-23T14:09:04.918Z,101367.09
2022-09-23T14:11:37.453Z,101360.84
2022-09-23T14:14:15.646Z,101359.47
2022-09-23T14:16:51.314Z,101357.03
2022-09-23T14:19:26.946Z,101354.56
2022-09-23T14:22:00.478Z,101350.84
2022-09-23T14:24:34.999Z,101347.19
2022-09-23T14:27:15.962Z,101355.09
2022-09-23T14:29:50.779Z,101350.88
2022-09-23T14:32:27.595Z,101349.63
2022-09-23T14:35:17.566Z,101349.28
2022-09-23T14:38:10.810Z,101351.25
2022-09-23T14:40:52.878Z,101338.09
2022-09-23T14:43:29.168Z,101338.50
2022-09-23T14:46:01.992Z,101338.91
2022-09-23T14:48:36.786Z,101335.09
2022-09-23T14:51:16.230Z,101321.41
2022-09-23T14:53:51.369Z,101323.19
2022-09-23T14:56:25.335Z,101320.13
2022-09-23T14:58:59.814Z,101324.34
2022-09-23T15:01:38.796Z,101317.72
2022-09-23T15:04:18.266Z,101322.41
2022-09-23T15:06:55.695Z,101330.56
2022-09-23T15:09:31.545Z,101330.47
2022-09-23T15:12:08.076Z,101336.22
2022-09-23T15:14:46.354Z,101329.25
2022-09-23T15:17:32.882Z,101332.31
2022-09-23T15:20:09.822Z,101335.94
2022-09-23T15:22:48.477Z,101323.34
2022-09-23T15:25:25.754Z,101323.78
2022-09-23T15:28:02.432Z,101328.16
2022-09-23T15:30:37.389Z,101331.97
2022-09-23T15:33:13.342Z,101331.59
2022-09-23T15:35:48.535Z,101323.78
2022-09-23T15:38:23.794Z,101323.06
2022-09-23T15:40:56.860Z,101317.47
2022-09-23T15:43:31.575Z,101321.47
2022-09-23T15:46:32.352Z,101327.94
2022-09-23T15:49:10.225Z,101321.28
2022-09-23T15:51:43.722Z,101322.53
2022-09-23T15:54:17.831Z,101318.50
2022-09-23T15:56:50.632Z,101323.31
2022-09-23T15:59:23.883Z,101328.25
2022-09-23T16:01:58.265Z,101317.44
2022-09-23T16:04:31.474Z,101317.09
2022-09-23T16:07:05.577Z,101313.59
2022-09-23T16:09:39.685Z,101307.38
2022-09-23T16:12:13.000Z,101307.53
2022-09-23T16:14:45.849Z,101306.31
2022-09-23T16:17:18.630Z,101308.66
2022-09-23T16:19:51.725Z,101310.41
2022-09-23T16:22:24.519Z,101303.94
2022-09-23T16:24:58.671Z,101302.19
2022-09-23T16:27:31.398Z,101301.03
2022-09-23T16:30:04.917Z,101302.53
2022-09-23T16:32:38.215Z,101297.03
2022-09-23T16:35:11.199Z,101296.63
2022-09-23T16:37:47.079Z,101294.66
2022-09-23T16:40:24.188Z,101288.25
2022-09-23T16:42:58.409Z,101289.94
2022-09-23T16:45:31.465Z,101287.09
2022-09-23T16:48:06.201Z,101287.03
2022-09-23T16:50:39.510Z,101281.47
2022-09-23T16:53:12.156Z,101292.28
2022-09-23T16:55:46.301Z,101284.81
2022-09-23T16:58:18.989Z,101283.63
2022-09-23T17:01:15.704Z,101287.59
2022-09-23T17:03:48.539Z,101287.66
2022-09-23T17:06:23.182Z,101283.63
2022-09-23T17:08:56.396Z,101280.50
2022-09-23T17:11:33.959Z,101286.44
2022-09-23T17:14:07.412Z,101285.34
2022-09-23T17:16:40.264Z,101287.28
2022-09-23T17:19:13.335Z,101282.31
2022-09-23T17:21:46.496Z,101285.50
2022-09-23T17:24:19.293Z,101281.56
2022-09-23T17:26:53.654Z,101272.00
2022-09-23T17:29:29.108Z,101279.91
2022-09-23T17:32:02.540Z,101277.28
2022-09-23T17:34:35.501Z,101274.50
2022-09-23T17:37:08.366Z,101275.00
2022-09-23T17:39:42.382Z,101281.84
2022-09-23T17:42:19.044Z,101271.50
2022-09-23T17:44:51.910Z,101275.50
2022-09-23T17:47:24.839Z,101273.94
2022-09-23T17:49:58.746Z,101282.34
2022-09-23T17:52:31.656Z,101268.84
2022-09-23T17:55:04.794Z,101272.41
2022-09-23T17:57:38.948Z,101291.38
2022-09-23T18:00:13.131Z,101289.72
2022-09-23T18:02:45.935Z,101289.47
2022-09-23T18:05:19.053Z,101297.47
2022-09-23T18:07:52.236Z,101296.72
2022-09-23T18:10:24.962Z,101292.41
2022-09-23T18:12:59.021Z,101297.63
2022-09-23T18:15:31.820Z,101294.75
2022-09-23T18:18:05.273Z,101305.69
2022-09-23T18:20:38.011Z,101303.50
2022-09-23T18:23:12.887Z,101307.00
2022-09-23T18:25:45.776Z,101303.53
2022-09-23T18:28:21.944Z,101303.13
2022-09-23T18:30:58.466Z,101299.63
2022-09-23T18:33:37.889Z,101302.41
2022-09-23T18:36:13.851Z,101304.41
2022-09-23T18:38:51.538Z,101303.66
2022-09-23T18:41:37.366Z,101297.41
2022-09-23T18:44:19.830Z,101302.97
2022-09-23T18:47:04.018Z,101294.09
2022-09-23T18:50:13.181Z,101299.00
2022-09-23T18:52:53.453Z,101293.59
2022-09-23T18:55:34.482Z,101302.97
2022-09-23T18:58:15.958Z,101302.28
2022-09-23T19:01:09.918Z,101299.63
2022-09-23T19:03:47.110Z,101310.34
2022-09-23T19:06:22.604Z,101293.88
2022-09-23T19:08:57.737Z,101297.63
2022-09-23T19:11:54.190Z,101297.81
2022-09-23T19:14:30.254Z,101295.47
2022-09-23T19:17:13.359Z,101295.41
2022-09-23T19:20:09.928Z,101290.00
2022-09-23T19:23:10.486Z,101298.75
2022-09-23T19:25:46.545Z,101292.41
2022-09-23T19:28:28.940Z,101290.38
2022-09-23T19:31:43.228Z,101283.59
2022-09-23T19:35:07.358Z,101284.72
2022-09-23T19:37:49.123Z,101284.91
2022-09-23T19:40:25.853Z,101280.56
2022-09-23T19:43:06.480Z,101279.00
2022-09-23T19:45:44.748Z,101279.81
2022-09-23T19:48:19.605Z,101280.16
2022-09-23T19:51:09.550Z,101284.13
2022-09-23T19:53:45.865Z,101278.41
2022-09-23T19:56:22.903Z,101270.50
2022-09-23T19:59:18.449Z,101278.41
2022-09-23T20:01:53.585Z,101272.03
2022-09-23T20:04:33.724Z,101273.69
2022-09-23T20:07:08.979Z,101267.28
2022-09-23T20:09:41.893Z,101267.28
2022-09-23T20:12:18.032Z,101271.22
2022-09-23T20:14:54.660Z,101266.56
2022-09-23T20:17:28.543Z,101266.19
2022-09-23T20:20:04.634Z,101264.25
2022-09-23T20:22:43.911Z,101255.44
2022-09-23T20:25:17.641Z,101262.69
2022-09-23T20:27:53.826Z,101257.94
2022-09-23T20:30:29.629Z,101256.38
2022-09-23T20:33:06.618Z,101261.19
2022-09-23T20:36:09.658Z,101256.63
2022-09-23T20:38:43.749Z,101254.78
2022-09-23T20:41:17.229Z,101247.66
2022-09-23T20:43:53.964Z,101249.25
2022-09-23T20:46:30.920Z,101253.25
2022-09-23T20:49:09.285Z,101249.59
2022-09-23T20:51:43.136Z,101250.03
2022-09-23T20:54:18.958Z,101240.97
2022-09-23T20:57:18.278Z,101245.34
2022-09-23T20:59:51.828Z,101243.41
2022-09-23T21:02:25.451Z,101239.78
2022-09-23T21:05:02.709Z,101241.75
2022-09-23T21:07:35.876Z,101235.91
2022-09-23T21:10:10.553Z,101240.72
2022-09-23T21:12:45.953Z,101229.63
2022-09-23T21:15:18.780Z,101231.19
2022-09-23T21:17:51.538Z,101228.34
2022-09-23T21:20:25.107Z,101232.75
2022-09-23T21:23:01.646Z,101231.28
2022-09-23T21:25:37.578Z,101238.78
2022-09-23T21:28:10.689Z,101239.25
2022-09-23T21:30:43.300Z,101235.28
2022-09-23T21:33:18.458Z,101230.06
2022-09-23T21:35:55.212Z,101226.47
2022-09-23T21:38:29.645Z,101219.75
2022-09-23T21:41:06.257Z,101219.81
2022-09-23T21:43:41.580Z,101212.28
2022-09-23T21:46:17.441Z,101221.03
2022-09-23T21:48:53.766Z,101208.41
2022-09-23T21:51:29.817Z,101212.03
2022-09-23T21:54:03.009Z,101221.91
2022-09-23T21:56:37.906Z,101214.78
2022-09-23T21:59:11.003Z,101202.84
2022-09-23T22:01:44.967Z,101199.75
2022-09-23T22:04:22.996Z,101205.16
2022-09-23T22:06:55.960Z,101203.66
2022-09-23T22:09:28.959Z,101209.38
2022-09-23T22:12:11.215Z,101201.69
2022-09-23T22:14:47.924Z,101195.78
2022-09-23T22:17:21.336Z,101198.56
2022-09-23T22:19:54.303Z,101192.75
2022-09-23T22:22:29.179Z,101190.69
2022-09-23T22:25:02.239Z,101196.56
2022-09-23T22:27:58.048Z,101189.91
2022-09-23T22:30:48.582Z,101201.38
2022-09-23T22:33:22.215Z,101189.47
2022-09-23T22:36:04.980Z,101199.84
2022-09-23T22:38:38.878Z,101186.75
2022-09-23T22:41:13.846Z,101195.19
2022-09-23T22:43:50.548Z,101188.13
2022-09-23T22:46:24.569Z,101195.97
2022-09-23T22:48:59.767Z,101181.28
2022-09-23T22:51:33.760Z,101192.03
2022-09-23T22:54:23.533Z,101182.50
2022-09-23T22:56:56.409Z,101180.25
2022-09-23T22:59:39.413Z,101181.44
2022-09-23T23:02:12.182Z,101183.41
2022-09-23T23:04:47.651Z,101182.94
2022-09-23T23:07:21.729Z,101178.63
2022-09-23T23:09:54.695Z,101182.63
2022-09-23T23:12:28.754Z,101176.69
2022-09-23T23:15:02.912Z,101172.75
2022-09-23T23:17:35.599Z,101170.00
2022-09-23T23:20:09.033Z,101170.75
2022-09-23T23:22:41.736Z,101168.00
2022-09-23T23:25:15.050Z,101164.88
2022-09-23T23:27:48.046Z,101163.72
2022-09-23T23:30:23.925Z,101167.97
2022-09-23T23:32:58.573Z,101154.13
2022-09-23T23:35:31.543Z,101158.94
2022-09-23T23:38:06.426Z,101152.56
2022-09-23T23:40:39.235Z,101145.44
2022-09-23T23:43:12.809Z,101153.69
2022-09-23T23:45:48.889Z,101151.78
2022-09-23T23:48:22.012Z,101148.53
2022-09-23T23:50:55.433Z,101147.75
2022-09-23T23:53:32.363Z,101142.28
2022-09-23T23:56:08.409Z,101137.47
2022-09-23T23:58:41.290Z,101141.09
